Fitchburg, Wisconsin
Current Conditions -  °F | °C
As of 6:53 PM on Friday 24 Oct 2014 (Local Time) from KMSN Reporting Station
Overcast Overcast  
Wind Chill: 60°   Ceiling: 3600
Heat Index: 60°   Visibility: 10mi
Dew Point: 51°   Wind: 3mph
Humidity: 72%   Direction: 190°S
Pressure: 29.93"   Gusts: NA
Location:  43°N, 89.41°W
Report Text: KMSN 242353Z 19003KT 10SM OVC036 16/11 A2993 RMK AO2 SLP136 T01560106 10161 20122 55000
Loading
Personal Weather Stations






























Interactive Weather Map
Tropical Storm Tracking
New forecast layout! Learn more

10-Day Weather Forecast

Advertisements
Track Severe Weather on mobile